createdAt,value
2017-11-29T00:00:10.933Z,96726.70
2017-11-29T00:01:16.328Z,96721.66
2017-11-29T00:02:21.110Z,96722.11
2017-11-29T00:03:26.261Z,96721.22
2017-11-29T00:04:31.004Z,96722.59
2017-11-29T00:05:35.781Z,96723.63
2017-11-29T00:06:40.561Z,96722.52
2017-11-29T00:07:45.333Z,96724.44
2017-11-29T00:08:50.085Z,96722.36
2017-11-29T00:09:55.199Z,96720.83
2017-11-29T00:11:00.056Z,96719.53
2017-11-29T00:12:04.804Z,96717.55
2017-11-29T00:13:09.567Z,96712.48
2017-11-29T00:14:14.302Z,96715.33
2017-11-29T00:15:19.114Z,96719.78
2017-11-29T00:16:24.378Z,96720.38
2017-11-29T00:17:29.146Z,96714.75
2017-11-29T00:18:33.893Z,96717.19
2017-11-29T00:19:38.624Z,96719.30
2017-11-29T00:20:43.394Z,96714.52
2017-11-29T00:21:48.116Z,96710.52
2017-11-29T00:22:53.230Z,96702.30
2017-11-29T00:23:57.971Z,96708.42
2017-11-29T00:25:02.814Z,96704.72
2017-11-29T00:26:07.610Z,96708.16
2017-11-29T00:27:12.427Z,96708.73
2017-11-29T00:28:17.392Z,96721.67
2017-11-29T00:29:22.591Z,96717.16
2017-11-29T00:30:27.392Z,96719.81
2017-11-29T00:31:32.181Z,96719.46
2017-11-29T00:32:36.900Z,96716.96
2017-11-29T00:33:41.773Z,96716.73
2017-11-29T00:34:46.513Z,96712.22
2017-11-29T00:35:51.644Z,96709.20
2017-11-29T00:36:56.382Z,96711.41
2017-11-29T00:38:01.131Z,96712.36
2017-11-29T00:39:05.870Z,96716.79
2017-11-29T00:40:10.614Z,96716.17
2017-11-29T00:41:15.891Z,96713.88
2017-11-29T00:42:20.661Z,96711.27
2017-11-29T00:43:25.452Z,96710.81
2017-11-29T00:44:30.225Z,96711.84
2017-11-29T00:45:35.010Z,96707.44
2017-11-29T00:46:39.767Z,96707.53
2017-11-29T00:47:44.924Z,96706.43
2017-11-29T00:48:49.687Z,96707.03
2017-11-29T00:49:54.418Z,96707.92
2017-11-29T00:50:59.149Z,96705.52
2017-11-29T00:52:03.919Z,96702.81
2017-11-29T00:53:08.671Z,96703.19
2017-11-29T00:54:13.878Z,96700.48
2017-11-29T00:55:18.613Z,96705.73
2017-11-29T00:56:23.390Z,96700.75
2017-11-29T00:57:28.156Z,96704.59
2017-11-29T00:58:33.022Z,96708.31
2017-11-29T00:59:37.867Z,96707.70
2017-11-29T01:00:43.041Z,96704.81
2017-11-29T01:01:47.920Z,96703.34
2017-11-29T01:02:52.705Z,96704.78
2017-11-29T01:03:57.485Z,96706.73
2017-11-29T01:05:02.333Z,96706.98
2017-11-29T01:06:07.718Z,96710.55
2017-11-29T01:07:12.945Z,96709.06
2017-11-29T01:08:17.660Z,96712.67
2017-11-29T01:09:22.771Z,96714.81
2017-11-29T01:10:27.503Z,96709.09
2017-11-29T01:11:32.338Z,96704.40
2017-11-29T01:12:37.150Z,96708.05
2017-11-29T01:13:42.263Z,96717.39
2017-11-29T01:14:47.002Z,96709.66
2017-11-29T01:15:51.847Z,96702.98
2017-11-29T01:16:56.678Z,96714.20
2017-11-29T01:18:01.485Z,96713.00
2017-11-29T01:19:06.215Z,96707.04
2017-11-29T01:20:11.364Z,96707.57
2017-11-29T01:21:16.124Z,96706.95
2017-11-29T01:22:20.941Z,96706.14
2017-11-29T01:23:25.786Z,96703.20
2017-11-29T01:24:30.547Z,96708.41
2017-11-29T01:25:35.314Z,96702.59
2017-11-29T01:26:40.506Z,96698.67
2017-11-29T01:27:46.192Z,96699.56
2017-11-29T01:28:51.004Z,96703.07
2017-11-29T01:29:55.813Z,96695.69
2017-11-29T01:31:00.606Z,96696.69
2017-11-29T01:32:05.434Z,96694.19
2017-11-29T01:33:10.630Z,96696.59
2017-11-29T01:34:15.394Z,96695.61
2017-11-29T01:35:20.088Z,96698.27
2017-11-29T01:36:24.889Z,96703.53
2017-11-29T01:37:29.710Z,96702.16
2017-11-29T01:38:34.471Z,96702.21
2017-11-29T01:39:39.516Z,96695.63
2017-11-29T01:40:44.245Z,96703.39
2017-11-29T01:41:48.964Z,96704.05
2017-11-29T01:42:53.669Z,96703.52
2017-11-29T01:43:58.493Z,96701.39
2017-11-29T01:45:03.093Z,96699.42
2017-11-29T01:46:08.324Z,96701.58
2017-11-29T01:47:13.213Z,96695.81
2017-11-29T01:48:17.988Z,96699.53
2017-11-29T01:49:22.833Z,96699.88
2017-11-29T01:50:27.510Z,96701.80
2017-11-29T01:51:32.237Z,96702.06
2017-11-29T01:52:37.494Z,96701.20
2017-11-29T01:53:42.265Z,96699.74
2017-11-29T01:54:47.091Z,96697.62
2017-11-29T01:55:51.849Z,96697.94
2017-11-29T01:56:56.585Z,96694.15
2017-11-29T01:58:01.333Z,96696.21
2017-11-29T01:59:06.424Z,96693.72
2017-11-29T02:00:11.694Z,96697.24
2017-11-29T02:01:16.406Z,96698.05
2017-11-29T02:02:21.166Z,96698.02
2017-11-29T02:03:25.913Z,96700.55
2017-11-29T02:04:30.629Z,96699.94
2017-11-29T02:05:35.798Z,96703.34
2017-11-29T02:06:41.678Z,96697.17
2017-11-29T02:07:46.469Z,96700.09
2017-11-29T02:08:51.225Z,96695.54
2017-11-29T02:09:55.945Z,96697.23
2017-11-29T02:11:00.715Z,96696.86
2017-11-29T02:12:06.438Z,96693.06
2017-11-29T02:13:11.213Z,96693.16
2017-11-29T02:14:15.959Z,96698.70
2017-11-29T02:15:20.714Z,96694.27
2017-11-29T02:16:25.322Z,96690.50
2017-11-29T02:17:30.008Z,96687.14
2017-11-29T02:18:34.966Z,96689.52
2017-11-29T02:19:39.600Z,96689.67
2017-11-29T02:20:44.298Z,96692.36
2017-11-29T02:21:49.004Z,96685.80
2017-11-29T02:22:53.668Z,96688.77
2017-11-29T02:23:58.297Z,96679.41
2017-11-29T02:25:03.339Z,96678.61
2017-11-29T02:26:07.990Z,96673.98
2017-11-29T02:27:12.746Z,96681.64
2017-11-29T02:28:17.425Z,96674.55
2017-11-29T02:29:22.099Z,96677.31
2017-11-29T02:30:26.805Z,96673.48
2017-11-29T02:31:31.763Z,96671.09
2017-11-29T02:32:36.454Z,96675.95
2017-11-29T02:33:41.177Z,96672.61
2017-11-29T02:34:45.861Z,96671.30
2017-11-29T02:35:51.418Z,96676.79
2017-11-29T02:36:56.141Z,96671.09
2017-11-29T02:38:01.269Z,96671.22
2017-11-29T02:39:06.132Z,96670.14
2017-11-29T02:40:15.092Z,96666.05
2017-11-29T02:43:27.409Z,96667.52
2017-11-29T02:44:32.182Z,96658.98
2017-11-29T02:45:36.903Z,96658.59
2017-11-29T02:46:41.625Z,96660.60
2017-11-29T02:47:46.472Z,96660.11
2017-11-29T02:48:51.241Z,96664.41
2017-11-29T02:49:56.341Z,96660.38
2017-11-29T02:51:01.115Z,96660.45
2017-11-29T02:52:05.849Z,96658.05
2017-11-29T02:53:10.679Z,96655.41
2017-11-29T02:54:15.425Z,96655.87
2017-11-29T02:55:20.257Z,96658.62
2017-11-29T02:56:25.466Z,96657.55
2017-11-29T02:57:30.236Z,96656.77
2017-11-29T02:58:35.080Z,96656.80
2017-11-29T02:59:39.817Z,96658.88
2017-11-29T03:00:44.544Z,96657.92
2017-11-29T03:01:49.321Z,96655.16
2017-11-29T03:02:54.060Z,96653.84
2017-11-29T03:03:58.770Z,96654.98
2017-11-29T03:05:03.516Z,96653.03
2017-11-29T03:06:08.443Z,96652.99
2017-11-29T03:07:13.321Z,96654.14
2017-11-29T03:08:18.049Z,96647.92
2017-11-29T03:09:22.812Z,96648.17
2017-11-29T03:10:27.601Z,96649.81
2017-11-29T03:11:32.323Z,96649.22
2017-11-29T03:12:37.099Z,96646.16
2017-11-29T03:13:42.411Z,96648.81
2017-11-29T03:14:47.200Z,96646.36
2017-11-29T03:15:51.978Z,96641.45
2017-11-29T03:16:56.846Z,96643.72
2017-11-29T03:18:01.685Z,96642.38
2017-11-29T03:19:06.434Z,96638.34
2017-11-29T03:20:11.537Z,96638.03
2017-11-29T03:21:16.261Z,96641.70
2017-11-29T03:22:21.138Z,96643.09
2017-11-29T03:23:25.869Z,96642.52
2017-11-29T03:24:30.646Z,96641.67
2017-11-29T03:25:35.370Z,96640.41
2017-11-29T03:26:40.579Z,96642.05
2017-11-29T03:27:45.309Z,96639.63
2017-11-29T03:28:50.052Z,96639.43
2017-11-29T03:29:54.755Z,96636.33
2017-11-29T03:30:59.477Z,96640.59
2017-11-29T03:32:04.243Z,96635.62
2017-11-29T03:33:09.418Z,96639.66
2017-11-29T03:34:14.162Z,96645.14
2017-11-29T03:35:18.932Z,96642.27
2017-11-29T03:36:23.678Z,96640.22
2017-11-29T03:37:28.392Z,96646.09
2017-11-29T03:38:33.168Z,96642.75
2017-11-29T03:39:38.365Z,96641.27
2017-11-29T03:40:43.102Z,96640.01
2017-11-29T03:41:47.838Z,96638.67
2017-11-29T03:42:52.585Z,96638.95
2017-11-29T03:43:57.326Z,96637.31
2017-11-29T03:45:02.069Z,96636.70
2017-11-29T03:46:07.113Z,96631.56
2017-11-29T03:47:11.896Z,96635.89
2017-11-29T03:48:16.662Z,96638.62
2017-11-29T03:49:21.687Z,96639.85
2017-11-29T03:50:26.440Z,96633.87
2017-11-29T03:51:31.189Z,96633.14
2017-11-29T03:52:36.334Z,96631.98
2017-11-29T03:53:41.067Z,96637.02
2017-11-29T03:54:45.817Z,96633.23
2017-11-29T03:55:50.520Z,96641.86
2017-11-29T03:56:55.238Z,96637.69
2017-11-29T03:58:00.016Z,96640.67
2017-11-29T03:59:05.238Z,96634.52
2017-11-29T04:00:10.290Z,96636.34
2017-11-29T04:01:15.085Z,96635.67
2017-11-29T04:02:19.815Z,96638.58
2017-11-29T04:03:24.625Z,96637.38
2017-11-29T04:04:29.371Z,96634.34
2017-11-29T04:05:34.478Z,96631.81
2017-11-29T04:06:39.163Z,96633.27
2017-11-29T04:07:43.967Z,96630.22
2017-11-29T04:08:48.701Z,96634.42
2017-11-29T04:09:53.490Z,96630.73
2017-11-29T04:10:58.708Z,96641.16
2017-11-29T04:12:03.913Z,96634.76
2017-11-29T04:13:08.698Z,96637.88
2017-11-29T04:14:13.479Z,96633.89
2017-11-29T04:15:19.203Z,96632.58
2017-11-29T04:16:24.206Z,96629.70
2017-11-29T04:17:28.937Z,96633.77
2017-11-29T04:18:34.015Z,96627.39
2017-11-29T04:19:38.733Z,96626.30
2017-11-29T04:20:43.478Z,96630.60
2017-11-29T04:21:48.270Z,96627.03
2017-11-29T04:22:53.010Z,96628.45
2017-11-29T04:23:57.753Z,96625.06
2017-11-29T04:25:02.903Z,96625.33
2017-11-29T04:26:07.614Z,96624.24
2017-11-29T04:27:12.404Z,96625.23
2017-11-29T04:28:17.225Z,96627.38
2017-11-29T04:29:21.970Z,96624.03
2017-11-29T04:30:26.816Z,96626.75
2017-11-29T04:31:31.874Z,96625.19
2017-11-29T04:32:36.737Z,96626.66
2017-11-29T04:33:41.560Z,96633.45
2017-11-29T04:34:46.314Z,96629.41
2017-11-29T04:35:51.083Z,96628.77
2017-11-29T04:36:55.870Z,96628.50
2017-11-29T04:38:00.689Z,96634.02
2017-11-29T04:39:06.111Z,96633.56
2017-11-29T04:40:10.858Z,96633.23
2017-11-29T04:41:15.594Z,96633.27
2017-11-29T04:42:20.374Z,96633.77
2017-11-29T04:43:25.791Z,96631.42
2017-11-29T04:44:30.515Z,96632.87
2017-11-29T04:45:35.188Z,96630.01
2017-11-29T04:46:39.835Z,96626.38
2017-11-29T04:47:44.449Z,96632.48
2017-11-29T04:48:49.122Z,96634.06
2017-11-29T04:49:54.306Z,96633.17
2017-11-29T04:50:59.030Z,96632.87
2017-11-29T04:52:03.818Z,96636.00
2017-11-29T04:53:08.572Z,96629.63
2017-11-29T04:54:13.386Z,96632.58
2017-11-29T04:55:18.179Z,96630.84
2017-11-29T04:56:24.302Z,96631.25
2017-11-29T04:57:29.299Z,96636.67
2017-11-29T04:58:34.150Z,96637.38
2017-11-29T04:59:38.942Z,96634.93
2017-11-29T05:00:43.722Z,96633.80
2017-11-29T05:01:48.434Z,96626.09
2017-11-29T05:02:53.578Z,96628.53
2017-11-29T05:03:58.295Z,96635.40
2017-11-29T05:05:03.072Z,96632.92
2017-11-29T05:06:07.963Z,96631.25
2017-11-29T05:07:12.803Z,96627.06
2017-11-29T05:08:17.606Z,96627.49
2017-11-29T05:09:22.747Z,96636.00
2017-11-29T05:10:27.509Z,96631.41
2017-11-29T05:11:32.314Z,96635.28
2017-11-29T05:12:37.250Z,96635.20
2017-11-29T05:13:42.086Z,96639.45
2017-11-29T05:14:46.841Z,96631.14
2017-11-29T05:15:51.936Z,96629.30
2017-11-29T05:16:56.677Z,96632.89
2017-11-29T05:18:01.422Z,96635.86
2017-11-29T05:19:06.195Z,96630.74
2017-11-29T05:20:10.963Z,96629.92
2017-11-29T05:21:15.760Z,96631.89
2017-11-29T05:22:20.921Z,96635.16
2017-11-29T05:23:25.697Z,96639.58
2017-11-29T05:24:30.505Z,96633.86
2017-11-29T05:25:35.320Z,96626.98
2017-11-29T05:26:40.118Z,96637.97
2017-11-29T05:27:44.956Z,96640.42
2017-11-29T05:28:50.194Z,96638.25
2017-11-29T05:29:54.988Z,96643.33
2017-11-29T05:30:59.836Z,96634.55
2017-11-29T05:32:04.553Z,96637.48
2017-11-29T05:33:09.396Z,96644.30
2017-11-29T05:34:14.191Z,96631.87
2017-11-29T05:35:19.318Z,96639.17
2017-11-29T05:36:24.115Z,96633.95
2017-11-29T05:37:28.840Z,96638.11
2017-11-29T05:38:33.717Z,96637.61
2017-11-29T05:39:38.476Z,96639.06
2017-11-29T05:40:43.208Z,96643.56
2017-11-29T05:41:48.343Z,96636.50
2017-11-29T05:42:53.325Z,96635.62
2017-11-29T05:43:58.149Z,96640.73
2017-11-29T05:45:02.925Z,96641.82
2017-11-29T05:46:07.773Z,96639.91
2017-11-29T05:47:12.609Z,96643.23
2017-11-29T05:48:17.903Z,96642.36
2017-11-29T05:49:22.796Z,96641.76
2017-11-29T05:50:27.642Z,96638.26
2017-11-29T05:51:32.402Z,96638.88
2017-11-29T05:52:37.142Z,96638.80
2017-11-29T05:53:41.994Z,96637.87
2017-11-29T05:54:47.138Z,96639.82
2017-11-29T05:55:51.902Z,96640.48
2017-11-29T05:56:56.632Z,96645.14
2017-11-29T05:58:01.422Z,96644.27
2017-11-29T05:59:06.221Z,96648.69
2017-11-29T06:00:11.473Z,96643.38
2017-11-29T06:01:17.549Z,96647.25
2017-11-29T06:02:22.440Z,96650.53
2017-11-29T06:03:27.245Z,96649.80
2017-11-29T06:04:32.110Z,96645.02
2017-11-29T06:05:37.581Z,96649.70
2017-11-29T06:06:42.209Z,96652.74
2017-11-29T06:07:47.272Z,96652.73
2017-11-29T06:08:52.640Z,96649.34
2017-11-29T06:09:58.274Z,96655.48
2017-11-29T06:11:03.088Z,96655.99
2017-11-29T06:12:07.804Z,96652.44
2017-11-29T06:13:12.565Z,96650.64
2017-11-29T06:14:17.992Z,96653.17
2017-11-29T06:15:22.706Z,96650.27
2017-11-29T06:16:27.330Z,96654.28
2017-11-29T06:17:31.988Z,96648.78
2017-11-29T06:18:36.703Z,96654.61
2017-11-29T06:19:41.341Z,96656.19
2017-11-29T06:20:46.338Z,96653.07
2017-11-29T06:21:50.997Z,96656.43
2017-11-29T06:22:55.623Z,96656.64
2017-11-29T06:24:00.414Z,96661.05
2017-11-29T06:25:05.204Z,96655.03
2017-11-29T06:26:10.134Z,96662.39
2017-11-29T06:27:15.374Z,96660.86
2017-11-29T06:28:20.178Z,96658.66
2017-11-29T06:29:24.957Z,96663.23
2017-11-29T06:30:29.743Z,96667.30
2017-11-29T06:31:34.606Z,96660.68
2017-11-29T06:32:39.382Z,96658.99
2017-11-29T06:33:44.859Z,96662.95
2017-11-29T06:34:49.617Z,96657.60
2017-11-29T06:35:54.531Z,96657.88
2017-11-29T06:36:59.306Z,96658.13
2017-11-29T06:38:04.409Z,96663.73
2017-11-29T06:39:10.791Z,96661.20
2017-11-29T06:40:16.050Z,96662.37
2017-11-29T06:41:20.802Z,96659.06
2017-11-29T06:42:25.591Z,96663.92
2017-11-29T06:43:30.391Z,96663.80
2017-11-29T06:44:35.183Z,96665.63
2017-11-29T06:45:39.947Z,96666.91
2017-11-29T06:46:45.061Z,96669.16
2017-11-29T06:47:50.362Z,96672.86
2017-11-29T06:48:55.185Z,96669.01
2017-11-29T06:49:59.954Z,96664.00
2017-11-29T06:51:04.838Z,96668.77
2017-11-29T06:52:09.616Z,96668.17
2017-11-29T06:53:14.814Z,96668.19
2017-11-29T06:54:19.691Z,96667.38
2017-11-29T06:55:24.494Z,96669.95
2017-11-29T06:56:29.334Z,96671.16
2017-11-29T06:57:34.111Z,96673.69
2017-11-29T06:58:38.940Z,96670.55
2017-11-29T06:59:43.701Z,96672.90
2017-11-29T07:00:48.324Z,96671.88
2017-11-29T07:01:52.992Z,96672.48
2017-11-29T07:02:57.535Z,96671.85
2017-11-29T07:04:02.108Z,96674.39
2017-11-29T07:05:07.468Z,96671.74
2017-11-29T07:06:12.441Z,96679.40
2017-11-29T07:07:17.154Z,96677.83
2017-11-29T07:08:21.883Z,96677.16
2017-11-29T07:09:26.589Z,96674.30
2017-11-29T07:10:31.256Z,96677.48
2017-11-29T07:11:35.976Z,96681.53
2017-11-29T07:12:41.149Z,96676.13
2017-11-29T07:13:46.009Z,96677.13
2017-11-29T07:14:50.815Z,96677.55
2017-11-29T07:15:55.690Z,96676.00
2017-11-29T07:17:00.541Z,96679.25
2017-11-29T07:18:05.335Z,96680.45
2017-11-29T07:19:10.513Z,96679.70
2017-11-29T07:20:15.349Z,96680.55
2017-11-29T07:21:20.256Z,96686.62
2017-11-29T07:22:25.022Z,96683.82
2017-11-29T07:23:29.830Z,96683.34
2017-11-29T07:24:34.612Z,96685.31
2017-11-29T07:25:39.854Z,96684.27
2017-11-29T07:26:44.635Z,96685.67
2017-11-29T07:27:49.523Z,96682.03
2017-11-29T07:28:54.551Z,96687.58
2017-11-29T07:29:59.304Z,96683.70
2017-11-29T07:31:04.176Z,96686.61
2017-11-29T07:32:09.302Z,96690.38
2017-11-29T07:33:15.098Z,96689.25
2017-11-29T07:34:19.906Z,96699.70
2017-11-29T07:35:24.677Z,96701.86
2017-11-29T07:36:29.467Z,96692.44
2017-11-29T07:37:34.329Z,96700.37
2017-11-29T07:38:39.482Z,96697.89
2017-11-29T07:39:44.227Z,96701.36
2017-11-29T07:40:49.783Z,96703.67
2017-11-29T07:41:55.373Z,96704.36
2017-11-29T07:43:00.868Z,96702.38
2017-11-29T07:44:06.392Z,96703.80
2017-11-29T07:45:11.961Z,96701.57
2017-11-29T07:46:16.766Z,96701.10
2017-11-29T07:47:21.516Z,96703.80
2017-11-29T07:48:26.244Z,96708.94
2017-11-29T07:49:30.970Z,96706.34
2017-11-29T07:50:36.049Z,96706.65
2017-11-29T07:51:40.846Z,96706.65
2017-11-29T07:52:45.598Z,96707.39
2017-11-29T07:53:50.417Z,96710.09
2017-11-29T07:54:55.256Z,96708.37
2017-11-29T07:56:00.074Z,96714.53
2017-11-29T07:57:04.524Z,96717.23
2017-11-29T07:58:09.429Z,96712.31
2017-11-29T07:59:14.271Z,96716.95
2017-11-29T08:00:19.032Z,96714.70
2017-11-29T08:01:23.845Z,96719.37
2017-11-29T08:02:28.732Z,96713.18
2017-11-29T08:03:35.097Z,96722.80
2017-11-29T08:04:39.864Z,96722.28
2017-11-29T08:05:44.749Z,96725.84
2017-11-29T08:06:49.568Z,96722.65
2017-11-29T08:07:54.389Z,96732.46
2017-11-29T08:08:59.181Z,96730.06
2017-11-29T08:10:04.507Z,96732.50
2017-11-29T08:11:10.467Z,96732.92
2017-11-29T08:12:15.434Z,96734.31
2017-11-29T08:13:20.228Z,96728.92
2017-11-29T08:14:25.051Z,96726.30
2017-11-29T08:15:29.933Z,96730.38
2017-11-29T08:16:35.182Z,96731.99
2017-11-29T08:17:39.968Z,96729.48
2017-11-29T08:18:44.758Z,96733.88
2017-11-29T08:19:49.600Z,96736.02
2017-11-29T08:20:54.432Z,96736.05
2017-11-29T08:21:59.220Z,96733.02
2017-11-29T08:23:04.580Z,96737.16
2017-11-29T08:24:09.378Z,96740.53
2017-11-29T08:25:14.236Z,96735.80
2017-11-29T08:26:19.088Z,96733.91
2017-11-29T08:27:23.989Z,96738.16
2017-11-29T08:28:28.849Z,96733.05
2017-11-29T08:29:33.697Z,96736.64
2017-11-29T08:30:38.426Z,96736.77
2017-11-29T08:31:43.095Z,96733.51
2017-11-29T08:32:52.250Z,96734.80
2017-11-29T08:33:56.997Z,96737.66
2017-11-29T08:35:01.741Z,96737.80
2017-11-29T08:36:07.028Z,96731.41
2017-11-29T08:37:11.712Z,96736.50
2017-11-29T08:38:16.368Z,96737.88
2017-11-29T08:39:21.077Z,96733.11
2017-11-29T08:40:25.831Z,96739.48
2017-11-29T08:41:30.603Z,96735.95
2017-11-29T08:42:35.913Z,96736.64
2017-11-29T08:43:40.784Z,96739.08
2017-11-29T08:44:45.636Z,96739.20
2017-11-29T08:45:50.261Z,96739.89
2017-11-29T08:46:55.179Z,96738.30
2017-11-29T08:47:59.979Z,96740.38
2017-11-29T08:49:05.164Z,96737.81
2017-11-29T08:50:10.033Z,96737.84
2017-11-29T08:51:14.820Z,96730.91
2017-11-29T08:52:19.619Z,96734.97
2017-11-29T08:53:24.483Z,96741.41
2017-11-29T08:54:29.366Z,96741.75
2017-11-29T08:55:34.544Z,96745.13
2017-11-29T08:56:39.413Z,96746.14
2017-11-29T08:57:44.205Z,96752.64
2017-11-29T08:58:49.027Z,96748.98
2017-11-29T08:59:53.810Z,96746.96
2017-11-29T09:00:58.586Z,96750.78
2017-11-29T09:02:04.036Z,96748.73
2017-11-29T09:03:09.273Z,96747.92
2017-11-29T09:04:14.003Z,96751.88
2017-11-29T09:05:18.781Z,96747.41
2017-11-29T09:06:23.562Z,96745.45
2017-11-29T09:07:28.452Z,96741.87
2017-11-29T09:08:33.592Z,96751.09
2017-11-29T09:09:38.344Z,96749.92
2017-11-29T09:10:43.132Z,96749.39
2017-11-29T09:11:47.942Z,96749.55
2017-11-29T09:12:52.964Z,96753.05
2017-11-29T09:13:57.872Z,96750.62
2017-11-29T09:15:03.046Z,96745.70
2017-11-29T09:16:08.424Z,96750.08
2017-11-29T09:17:13.265Z,96746.33
2017-11-29T09:18:18.231Z,96749.89
2017-11-29T09:19:23.128Z,96744.66
2017-11-29T09:20:27.881Z,96747.02
2017-11-29T09:21:32.974Z,96747.31
2017-11-29T09:22:38.523Z,96751.69
2017-11-29T09:23:43.364Z,96747.66
2017-11-29T09:24:48.130Z,96747.07
2017-11-29T09:25:52.856Z,96756.69
2017-11-29T09:26:57.606Z,96752.11
2017-11-29T09:28:02.736Z,96750.78
2017-11-29T09:29:07.462Z,96753.06
2017-11-29T09:30:12.241Z,96760.38
2017-11-29T09:31:16.920Z,96755.01
2017-11-29T09:32:21.601Z,96760.34
2017-11-29T09:33:26.351Z,96761.45
2017-11-29T09:34:31.459Z,96760.34
2017-11-29T09:35:36.301Z,96756.92
2017-11-29T09:36:41.126Z,96760.92
2017-11-29T09:37:45.893Z,96762.48
2017-11-29T09:38:50.757Z,96761.64
2017-11-29T09:39:55.605Z,96761.69
2017-11-29T09:41:01.531Z,96764.30
2017-11-29T09:42:06.389Z,96763.70
2017-11-29T09:43:11.260Z,96766.85
2017-11-29T09:44:16.038Z,96760.07
2017-11-29T09:45:20.976Z,96759.25
2017-11-29T09:46:26.844Z,96754.89
2017-11-29T09:47:32.055Z,96755.99
2017-11-29T09:48:36.995Z,96762.36
2017-11-29T09:49:41.852Z,96756.69
2017-11-29T09:50:46.731Z,96753.98
2017-11-29T09:51:51.543Z,96757.09
2017-11-29T09:52:56.357Z,96754.82
2017-11-29T09:54:01.609Z,96760.95
2017-11-29T09:55:06.504Z,96755.48
2017-11-29T09:56:11.298Z,96752.77
2017-11-29T09:57:16.102Z,96750.80
2017-11-29T09:58:20.965Z,96752.88
2017-11-29T09:59:26.916Z,96748.01
2017-11-29T10:00:32.132Z,96751.43
2017-11-29T10:01:37.180Z,96753.66
2017-11-29T10:02:41.926Z,96754.08
2017-11-29T10:03:46.730Z,96752.97
2017-11-29T10:04:51.593Z,96754.99
2017-11-29T10:05:56.480Z,96758.27
2017-11-29T10:07:02.517Z,96759.17
2017-11-29T10:08:07.223Z,96759.51
2017-11-29T10:09:12.091Z,96758.42
2017-11-29T10:10:16.854Z,96753.17
2017-11-29T10:11:21.572Z,96761.16
2017-11-29T10:12:26.493Z,96757.87
2017-11-29T10:13:32.066Z,96759.58
2017-11-29T10:14:37.344Z,96753.43
2017-11-29T10:15:42.124Z,96763.45
2017-11-29T10:16:46.941Z,96759.38
2017-11-29T10:17:51.671Z,96762.59
2017-11-29T10:18:56.386Z,96760.81
2017-11-29T10:20:01.781Z,96765.70
2017-11-29T10:21:06.552Z,96762.89
2017-11-29T10:22:11.282Z,96760.19
2017-11-29T10:23:15.878Z,96763.55
2017-11-29T10:24:20.565Z,96761.65
2017-11-29T10:25:25.418Z,96755.61
2017-11-29T10:26:30.449Z,96758.83
2017-11-29T10:27:35.265Z,96753.84
2017-11-29T10:28:40.208Z,96751.94
2017-11-29T10:29:45.087Z,96756.52
2017-11-29T10:30:49.971Z,96755.82
2017-11-29T10:31:54.699Z,96757.59
2017-11-29T10:32:59.839Z,96756.22
2017-11-29T10:34:04.686Z,96753.87
2017-11-29T10:35:09.558Z,96751.25
2017-11-29T10:36:14.262Z,96744.34
2017-11-29T10:37:19.168Z,96747.88
2017-11-29T10:38:23.858Z,96747.14
2017-11-29T10:39:29.252Z,96742.67
2017-11-29T10:40:34.022Z,96739.83
2017-11-29T10:41:39.337Z,96745.81
2017-11-29T10:42:44.390Z,96745.22
2017-11-29T10:43:49.124Z,96743.61
2017-11-29T10:44:54.009Z,96744.34
2017-11-29T10:45:59.284Z,96743.41
2017-11-29T10:47:04.123Z,96737.84
2017-11-29T10:48:09.033Z,96736.17
2017-11-29T10:49:14.086Z,96744.87
2017-11-29T10:50:19.838Z,96748.69
2017-11-29T10:51:24.722Z,96747.80
2017-11-29T10:52:30.087Z,96744.40
2017-11-29T10:53:35.003Z,96746.23
2017-11-29T10:54:39.857Z,96736.57
2017-11-29T10:55:44.690Z,96734.97
2017-11-29T10:56:49.417Z,96740.13
2017-11-29T10:57:54.761Z,96736.63
2017-11-29T10:59:00.359Z,96733.40
2017-11-29T11:00:05.337Z,96741.67
2017-11-29T11:01:10.230Z,96736.99
2017-11-29T11:02:14.951Z,96739.66
2017-11-29T11:03:19.700Z,96735.00
2017-11-29T11:04:24.794Z,96738.56
2017-11-29T11:05:29.450Z,96740.94
2017-11-29T11:06:34.091Z,96737.53
2017-11-29T11:07:38.968Z,96736.22
2017-11-29T11:08:43.710Z,96736.86
2017-11-29T11:09:48.513Z,96737.28
2017-11-29T11:10:53.724Z,96735.25
2017-11-29T11:11:58.535Z,96738.80
2017-11-29T11:13:04.617Z,96741.34
2017-11-29T11:14:09.354Z,96735.72
2017-11-29T11:15:14.217Z,96741.38
2017-11-29T11:16:18.951Z,96747.61
2017-11-29T11:17:24.184Z,96744.19
2017-11-29T11:18:28.925Z,96741.70
2017-11-29T11:19:33.674Z,96741.84
2017-11-29T11:20:38.544Z,96737.85
2017-11-29T11:21:43.482Z,96735.62
2017-11-29T11:22:48.674Z,96744.19
2017-11-29T11:23:54.899Z,96736.41
2017-11-29T11:24:59.986Z,96735.52
2017-11-29T11:26:04.958Z,96740.46
2017-11-29T11:27:09.889Z,96730.80
2017-11-29T11:28:15.752Z,96727.81
2017-11-29T11:29:21.175Z,96736.64
2017-11-29T11:30:26.451Z,96731.20
2017-11-29T11:31:31.335Z,96733.66
2017-11-29T11:32:36.285Z,96735.70
2017-11-29T11:33:41.225Z,96738.02
2017-11-29T11:34:46.187Z,96732.66
2017-11-29T11:35:51.027Z,96735.69
2017-11-29T11:36:56.294Z,96732.85
2017-11-29T11:38:01.113Z,96732.57
2017-11-29T11:39:06.148Z,96731.58
2017-11-29T11:40:11.130Z,96732.95
2017-11-29T11:41:16.060Z,96728.03
2017-11-29T11:42:20.992Z,96732.34
2017-11-29T11:43:26.106Z,96730.19
2017-11-29T11:44:31.037Z,96734.73
2017-11-29T11:45:35.876Z,96727.36
2017-11-29T11:46:40.754Z,96730.14
2017-11-29T11:47:45.620Z,96728.09
2017-11-29T11:48:50.380Z,96728.53
2017-11-29T11:49:55.810Z,96724.83
2017-11-29T11:51:00.655Z,96727.34
2017-11-29T11:52:05.617Z,96723.63
2017-11-29T11:53:10.598Z,96722.61
2017-11-29T11:54:15.463Z,96720.55
2017-11-29T11:55:20.208Z,96722.20
2017-11-29T11:56:25.294Z,96725.20
2017-11-29T11:57:30.022Z,96719.30
2017-11-29T11:58:34.869Z,96718.67
2017-11-29T11:59:39.681Z,96721.48
2017-11-29T12:00:44.492Z,96719.62
2017-11-29T12:01:49.233Z,96716.44
2017-11-29T12:02:54.469Z,96712.16
2017-11-29T12:03:59.188Z,96712.83
2017-11-29T12:05:03.968Z,96709.69
2017-11-29T12:06:08.680Z,96714.23
2017-11-29T12:07:13.430Z,96705.31
2017-11-29T12:08:18.581Z,96709.41
2017-11-29T12:09:23.812Z,96707.69
2017-11-29T12:10:28.567Z,96703.41
2017-11-29T12:11:33.309Z,96707.93
2017-11-29T12:12:38.006Z,96709.42
2017-11-29T12:13:42.827Z,96708.66
2017-11-29T12:14:47.587Z,96705.86
2017-11-29T12:15:52.794Z,96709.70
2017-11-29T12:16:57.536Z,96706.77
2017-11-29T12:18:02.548Z,96704.59
2017-11-29T12:19:07.106Z,96708.45
2017-11-29T12:20:11.722Z,96707.34
2017-11-29T12:21:16.527Z,96705.39
2017-11-29T12:22:21.570Z,96704.41
2017-11-29T12:23:26.292Z,96712.73
2017-11-29T12:24:30.914Z,96702.79
2017-11-29T12:25:35.625Z,96705.13
2017-11-29T12:26:40.261Z,96706.53
2017-11-29T12:27:44.955Z,96701.48
2017-11-29T12:28:50.203Z,96708.73
2017-11-29T12:29:54.984Z,96713.22
2017-11-29T12:30:59.742Z,96704.88
2017-11-29T12:32:04.564Z,96709.98
2017-11-29T12:33:09.236Z,96706.47
2017-11-29T12:34:13.968Z,96704.83
2017-11-29T12:35:19.149Z,96701.59
2017-11-29T12:36:23.877Z,96704.51
2017-11-29T12:37:28.613Z,96704.66
2017-11-29T12:38:33.263Z,96704.08
2017-11-29T12:39:38.015Z,96707.18
2017-11-29T12:40:42.828Z,96701.59
2017-11-29T12:41:48.054Z,96708.95
2017-11-29T12:42:52.755Z,96703.16
2017-11-29T12:43:57.355Z,96705.01